sensor_id;sensor_type;location;lat;lon;timestamp;pressure;altitude;pressure_sealevel;temperature;humidity
60170;BME280;46042;49.444;6.862;2022-12-15T00:01:57;97530.56;;;-4.02;100.00
60170;BME280;46042;49.444;6.862;2022-12-15T00:04:42;97537.25;;;-3.96;100.00
60170;BME280;46042;49.444;6.862;2022-12-15T00:07:27;97537.25;;;-3.94;100.00
60170;BME280;46042;49.444;6.862;2022-12-15T00:10:12;97538.06;;;-3.94;100.00
60170;BME280;46042;49.444;6.862;2022-12-15T00:12:57;97539.91;;;-3.99;100.00
60170;BME280;46042;49.444;6.862;2022-12-15T00:15:47;97536.47;;;-3.98;100.00
60170;BME280;46042;49.444;6.862;2022-12-15T00:18:32;97544.09;;;-3.95;100.00
60170;BME280;46042;49.444;6.862;2022-12-15T00:21:18;97530.41;;;-3.95;100.00
60170;BME280;46042;49.444;6.862;2022-12-15T00:24:03;97535.50;;;-3.94;100.00
60170;BME280;46042;49.444;6.862;2022-12-15T00:26:48;97541.59;;;-3.98;100.00
60170;BME280;46042;49.444;6.862;2022-12-15T00:29:34;97531.22;;;-3.95;100.00
60170;BME280;46042;49.444;6.862;2022-12-15T00:32:18;97536.34;;;-3.93;100.00
60170;BME280;46042;49.444;6.862;2022-12-15T00:35:04;97543.16;;;-3.91;100.00
60170;BME280;46042;49.444;6.862;2022-12-15T00:37:49;97549.22;;;-3.93;100.00
60170;BME280;46042;49.444;6.862;2022-12-15T00:40:34;97553.63;;;-3.98;100.00
60170;BME280;46042;49.444;6.862;2022-12-15T00:43:01;97550.13;;;-3.96;100.00
60170;BME280;46042;49.444;6.862;2022-12-15T00:45:28;97546.72;;;-3.96;100.00
60170;BME280;46042;49.444;6.862;2022-12-15T00:48:13;97551.81;;;-3.95;100.00
60170;BME280;46042;49.444;6.862;2022-12-15T00:50:43;97541.56;;;-3.96;100.00
60170;BME280;46042;49.444;6.862;2022-12-15T00:53:20;97546.75;;;-3.98;100.00
60170;BME280;46042;49.444;6.862;2022-12-15T00:56:05;97553.66;;;-4.00;100.00
60170;BME280;46042;49.444;6.862;2022-12-15T00:58:51;97550.50;;;-4.11;100.00
60170;BME280;46042;49.444;6.862;2022-12-15T01:01:37;97539.41;;;-4.14;100.00
60170;BME280;46042;49.444;6.862;2022-12-15T01:04:23;97543.81;;;-4.17;100.00
60170;BME280;46042;49.444;6.862;2022-12-15T01:07:09;97551.66;;;-4.23;100.00
60170;BME280;46042;49.444;6.862;2022-12-15T01:09:54;97564.66;;;-4.30;100.00
60170;BME280;46042;49.444;6.862;2022-12-15T01:12:39;97575.94;;;-4.35;100.00
60170;BME280;46042;49.444;6.862;2022-12-15T01:15:25;97576.97;;;-4.43;100.00
60170;BME280;46042;49.444;6.862;2022-12-15T01:18:11;97578.75;;;-4.46;100.00
60170;BME280;46042;49.444;6.862;2022-12-15T01:20:58;97576.25;;;-4.49;100.00
60170;BME280;46042;49.444;6.862;2022-12-15T01:23:25;97578.91;;;-4.54;100.00
60170;BME280;46042;49.444;6.862;2022-12-15T01:25:52;97585.91;;;-4.59;100.00
60170;BME280;46042;49.444;6.862;2022-12-15T01:28:20;97586.00;;;-4.65;100.00
60170;BME280;46042;49.444;6.862;2022-12-15T01:30:48;97590.66;;;-4.81;100.00
60170;BME280;46042;49.444;6.862;2022-12-15T01:33:17;97591.44;;;-4.79;100.00
60170;BME280;46042;49.444;6.862;2022-12-15T01:35:53;97589.75;;;-4.80;100.00
60170;BME280;46042;49.444;6.862;2022-12-15T01:38:19;97583.75;;;-4.81;100.00
60170;BME280;46042;49.444;6.862;2022-12-15T01:40:55;97573.56;;;-4.84;100.00
60170;BME280;46042;49.444;6.862;2022-12-15T01:43:28;97577.88;;;-4.84;100.00
60170;BME280;46042;49.444;6.862;2022-12-15T01:46:06;97583.97;;;-4.90;100.00
60170;BME280;46042;49.444;6.862;2022-12-15T01:53:34;97592.72;;;-5.01;100.00
60170;BME280;46042;49.444;6.862;2022-12-15T01:56:04;97597.94;;;-5.04;100.00
60170;BME280;46042;49.444;6.862;2022-12-15T01:58:31;97596.25;;;-5.05;100.00
60170;BME280;46042;49.444;6.862;2022-12-15T02:01:00;97591.19;;;-5.08;100.00
60170;BME280;46042;49.444;6.862;2022-12-15T02:03:28;97592.88;;;-5.07;100.00
60170;BME280;46042;49.444;6.862;2022-12-15T02:05:56;97597.25;;;-5.12;100.00
60170;BME280;46042;49.444;6.862;2022-12-15T02:08:25;97604.97;;;-5.14;100.00
60170;BME280;46042;49.444;6.862;2022-12-15T02:11:28;97606.72;;;-5.16;100.00
60170;BME280;46042;49.444;6.862;2022-12-15T02:14:04;97607.69;;;-5.20;100.00
60170;BME280;46042;49.444;6.862;2022-12-15T02:24:58;97616.47;;;-5.33;100.00
60170;BME280;46042;49.444;6.862;2022-12-15T02:27:34;97617.44;;;-5.39;100.00
60170;BME280;46042;49.444;6.862;2022-12-15T02:30:20;97616.75;;;-5.47;100.00
60170;BME280;46042;49.444;6.862;2022-12-15T02:32:49;97615.13;;;-5.54;100.00
60170;BME280;46042;49.444;6.862;2022-12-15T02:35:32;97623.72;;;-5.57;100.00
60170;BME280;46042;49.444;6.862;2022-12-15T02:38:02;97617.91;;;-5.65;100.00
60170;BME280;46042;49.444;6.862;2022-12-15T02:40:28;97623.91;;;-5.68;100.00
60170;BME280;46042;49.444;6.862;2022-12-15T02:42:57;97628.28;;;-5.72;100.00
60170;BME280;46042;49.444;6.862;2022-12-15T02:45:45;97638.53;;;-5.72;100.00
60170;BME280;46042;49.444;6.862;2022-12-15T02:56:19;97639.47;;;-5.77;100.00
60170;BME280;46042;49.444;6.862;2022-12-15T03:01:51;97635.28;;;-5.83;100.00
60170;BME280;46042;49.444;6.862;2022-12-15T03:04:19;97646.47;;;-5.87;100.00
60170;BME280;46042;49.444;6.862;2022-12-15T03:06:54;97643.09;;;-5.91;100.00
60170;BME280;46042;49.444;6.862;2022-12-15T03:09:33;97642.28;;;-5.94;100.00
60170;BME280;46042;49.444;6.862;2022-12-15T03:12:08;97644.09;;;-5.98;100.00
60170;BME280;46042;49.444;6.862;2022-12-15T03:14:35;97644.97;;;-6.01;100.00
60170;BME280;46042;49.444;6.862;2022-12-15T03:17:05;97632.28;;;-6.07;100.00
60170;BME280;46042;49.444;6.862;2022-12-15T03:19:35;97636.56;;;-6.09;100.00
60170;BME280;46042;49.444;6.862;2022-12-15T03:22:02;97638.34;;;-6.14;100.00
60170;BME280;46042;49.444;6.862;2022-12-15T03:24:29;97638.41;;;-6.19;100.00
60170;BME280;46042;49.444;6.862;2022-12-15T03:26:56;97639.31;;;-6.21;100.00
60170;BME280;46042;49.444;6.862;2022-12-15T03:29:23;97635.16;;;-6.29;100.00
60170;BME280;46042;49.444;6.862;2022-12-15T03:31:49;97642.06;;;-6.32;100.00
60170;BME280;46042;49.444;6.862;2022-12-15T03:34:16;97641.25;;;-6.37;100.00
60170;BME280;46042;49.444;6.862;2022-12-15T03:36:43;97639.56;;;-6.38;100.00
60170;BME280;46042;49.444;6.862;2022-12-15T03:39:09;97633.72;;;-6.47;100.00
60170;BME280;46042;49.444;6.862;2022-12-15T03:41:36;97632.88;;;-6.49;100.00
60170;BME280;46042;49.444;6.862;2022-12-15T03:44:03;97628.59;;;-6.47;100.00
60170;BME280;46042;49.444;6.862;2022-12-15T03:46:29;97623.53;;;-6.53;100.00
60170;BME280;46042;49.444;6.862;2022-12-15T03:48:56;97623.59;;;-6.58;100.00
60170;BME280;46042;49.444;6.862;2022-12-15T03:51:24;97623.56;;;-6.56;100.00
60170;BME280;46042;49.444;6.862;2022-12-15T03:53:50;97625.31;;;-6.57;100.00
60170;BME280;46042;49.444;6.862;2022-12-15T03:56:17;97621.88;;;-6.57;100.00
60170;BME280;46042;49.444;6.862;2022-12-15T03:58:44;97631.25;;;-6.56;100.00
60170;BME280;46042;49.444;6.862;2022-12-15T04:01:16;97625.31;;;-6.58;100.00
60170;BME280;46042;49.444;6.862;2022-12-15T04:03:44;97620.22;;;-6.61;100.00
60170;BME280;46042;49.444;6.862;2022-12-15T04:06:10;97635.66;;;-6.64;100.00
60170;BME280;46042;49.444;6.862;2022-12-15T04:08:37;97645.03;;;-6.63;100.00
60170;BME280;46042;49.444;6.862;2022-12-15T04:11:04;97642.47;;;-6.63;100.00
60170;BME280;46042;49.444;6.862;2022-12-15T04:13:30;97643.34;;;-6.64;100.00
60170;BME280;46042;49.444;6.862;2022-12-15T04:16:01;97631.41;;;-6.68;100.00
60170;BME280;46042;49.444;6.862;2022-12-15T04:18:28;97627.16;;;-6.69;100.00
60170;BME280;46042;49.444;6.862;2022-12-15T04:20:55;97629.72;;;-6.68;100.00
60170;BME280;46042;49.444;6.862;2022-12-15T04:23:21;97633.13;;;-6.67;100.00
60170;BME280;46042;49.444;6.862;2022-12-15T04:25:48;97628.00;;;-6.69;100.00
60170;BME280;46042;49.444;6.862;2022-12-15T04:28:34;97622.06;;;-6.73;100.00
60170;BME280;46042;49.444;6.862;2022-12-15T04:31:25;97628.09;;;-6.75;100.00
60170;BME280;46042;49.444;6.862;2022-12-15T04:34:14;97638.38;;;-6.78;100.00
60170;BME280;46042;49.444;6.862;2022-12-15T04:37:00;97632.41;;;-6.80;100.00
60170;BME280;46042;49.444;6.862;2022-12-15T04:39:49;97625.63;;;-6.83;100.00
60170;BME280;46042;49.444;6.862;2022-12-15T04:42:40;97625.66;;;-6.86;100.00
60170;BME280;46042;49.444;6.862;2022-12-15T04:45:26;97619.69;;;-6.88;100.00
60170;BME280;46042;49.444;6.862;2022-12-15T04:48:12;97618.06;;;-6.91;100.00
60170;BME280;46042;49.444;6.862;2022-12-15T04:50:57;97627.50;;;-6.97;100.00
60170;BME280;46042;49.444;6.862;2022-12-15T04:53:44;97631.00;;;-7.03;100.00
60170;BME280;46042;49.444;6.862;2022-12-15T04:56:29;97634.41;;;-7.06;100.00
60170;BME280;46042;49.444;6.862;2022-12-15T04:59:15;97648.16;;;-7.15;100.00
60170;BME280;46042;49.444;6.862;2022-12-15T05:02:00;97655.13;;;-7.26;100.00
60170;BME280;46042;49.444;6.862;2022-12-15T05:04:45;97661.13;;;-7.27;100.00
60170;BME280;46042;49.444;6.862;2022-12-15T05:07:31;97665.34;;;-7.23;100.00
60170;BME280;46042;49.444;6.862;2022-12-15T05:10:16;97667.84;;;-7.21;100.00
60170;BME280;46042;49.444;6.862;2022-12-15T05:13:05;97680.66;;;-7.20;100.00
60170;BME280;46042;49.444;6.862;2022-12-15T05:15:51;97691.75;;;-7.21;100.00
60170;BME280;46042;49.444;6.862;2022-12-15T05:18:36;97699.44;;;-7.22;100.00
60170;BME280;46042;49.444;6.862;2022-12-15T05:21:21;97690.09;;;-7.25;100.00
60170;BME280;46042;49.444;6.862;2022-12-15T05:24:06;97681.56;;;-7.25;100.00
60170;BME280;46042;49.444;6.862;2022-12-15T05:26:51;97681.59;;;-7.29;100.00
60170;BME280;46042;49.444;6.862;2022-12-15T05:29:36;97681.59;;;-7.29;100.00
60170;BME280;46042;49.444;6.862;2022-12-15T05:32:21;97687.63;;;-7.33;100.00
60170;BME280;46042;49.444;6.862;2022-12-15T05:34:49;97692.72;;;-7.34;100.00
60170;BME280;46042;49.444;6.862;2022-12-15T05:37:15;97680.81;;;-7.37;100.00
60170;BME280;46042;49.444;6.862;2022-12-15T05:39:42;97668.91;;;-7.39;100.00
60170;BME280;46042;49.444;6.862;2022-12-15T05:42:09;97666.38;;;-7.44;100.00
60170;BME280;46042;49.444;6.862;2022-12-15T05:44:35;97681.81;;;-7.50;100.00
60170;BME280;46042;49.444;6.862;2022-12-15T05:47:02;97683.53;;;-7.54;100.00
60170;BME280;46042;49.444;6.862;2022-12-15T05:49:30;97690.41;;;-7.62;100.00
60170;BME280;46042;49.444;6.862;2022-12-15T05:51:57;97697.28;;;-7.67;100.00
60170;BME280;46042;49.444;6.862;2022-12-15T05:54:23;97692.19;;;-7.72;100.00
60170;BME280;46042;49.444;6.862;2022-12-15T05:56:51;97685.41;;;-7.76;100.00
60170;BME280;46042;49.444;6.862;2022-12-15T05:59:17;97680.31;;;-7.78;100.00
60170;BME280;46042;49.444;6.862;2022-12-15T06:01:44;97680.31;;;-7.81;100.00
60170;BME280;46042;49.444;6.862;2022-12-15T06:04:11;97686.31;;;-7.82;100.00
60170;BME280;46042;49.444;6.862;2022-12-15T06:06:39;97686.34;;;-7.83;100.00
60170;BME280;46042;49.444;6.862;2022-12-15T06:09:06;97675.25;;;-7.84;100.00
60170;BME280;46042;49.444;6.862;2022-12-15T06:11:33;97676.16;;;-7.91;100.00
60170;BME280;46042;49.444;6.862;2022-12-15T06:14:00;97695.78;;;-7.96;100.00
60170;BME280;46042;49.444;6.862;2022-12-15T06:16:27;97700.03;;;-7.94;100.00
60170;BME280;46042;49.444;6.862;2022-12-15T06:18:59;97697.47;;;-7.92;100.00
60170;BME280;46042;49.444;6.862;2022-12-15T06:21:34;97699.16;;;-7.91;100.00
60170;BME280;46042;49.444;6.862;2022-12-15T06:24:03;97697.44;;;-7.91;100.00
60170;BME280;46042;49.444;6.862;2022-12-15T06:28:58;97707.72;;;-7.95;100.00
60170;BME280;46042;49.444;6.862;2022-12-15T06:31:28;97713.72;;;-8.01;100.00
60170;BME280;46042;49.444;6.862;2022-12-15T06:33:56;97715.44;;;-8.05;100.00
60170;BME280;46042;49.444;6.862;2022-12-15T06:36:28;97715.44;;;-8.05;100.00
60170;BME280;46042;49.444;6.862;2022-12-15T06:39:01;97717.16;;;-8.07;100.00
60170;BME280;46042;49.444;6.862;2022-12-15T06:41:28;97708.66;;;-8.10;100.00
60170;BME280;46042;49.444;6.862;2022-12-15T06:43:56;97702.75;;;-8.19;100.00
60170;BME280;46042;49.444;6.862;2022-12-15T06:46:24;97703.59;;;-8.17;100.00
60170;BME280;46042;49.444;6.862;2022-12-15T06:48:51;97698.47;;;-8.17;100.00
60170;BME280;46042;49.444;6.862;2022-12-15T06:51:18;97698.47;;;-8.17;100.00
60170;BME280;46042;49.444;6.862;2022-12-15T06:53:45;97695.06;;;-8.16;100.00
60170;BME280;46042;49.444;6.862;2022-12-15T06:56:20;97694.25;;;-8.21;100.00
60170;BME280;46042;49.444;6.862;2022-12-15T06:58:54;97702.75;;;-8.20;100.00
60170;BME280;46042;49.444;6.862;2022-12-15T07:01:22;97698.50;;;-8.23;100.00
60170;BME280;46042;49.444;6.862;2022-12-15T07:03:50;97689.16;;;-8.25;100.00
60170;BME280;46042;49.444;6.862;2022-12-15T07:06:18;97687.50;;;-8.30;100.00
60170;BME280;46042;49.444;6.862;2022-12-15T07:08:48;97691.75;;;-8.30;100.00
60170;BME280;46042;49.444;6.862;2022-12-15T07:11:18;97674.72;;;-8.31;100.00
60170;BME280;46042;49.444;6.862;2022-12-15T07:13:52;97679.00;;;-8.33;100.00
60170;BME280;46042;49.444;6.862;2022-12-15T07:16:21;97691.75;;;-8.33;100.00
60170;BME280;46042;49.444;6.862;2022-12-15T07:18:48;97696.88;;;-8.39;100.00
60170;BME280;46042;49.444;6.862;2022-12-15T07:21:14;97702.84;;;-8.39;100.00
60170;BME280;46042;49.444;6.862;2022-12-15T07:23:42;97696.88;;;-8.39;100.00
60170;BME280;46042;49.444;6.862;2022-12-15T07:26:21;97694.38;;;-8.44;100.00
60170;BME280;46042;49.444;6.862;2022-12-15T07:28:48;97689.28;;;-8.47;100.00
60170;BME280;46042;49.444;6.862;2022-12-15T07:31:15;97686.72;;;-8.44;100.00
60170;BME280;46042;49.444;6.862;2022-12-15T07:33:42;97691.78;;;-8.43;100.00
60170;BME280;46042;49.444;6.862;2022-12-15T07:36:08;97691.06;;;-8.54;100.00
60170;BME280;46042;49.444;6.862;2022-12-15T07:38:36;97692.75;;;-8.59;100.00
60170;BME280;46042;49.444;6.862;2022-12-15T07:41:05;97702.94;;;-8.51;100.00
60170;BME280;46042;49.444;6.862;2022-12-15T07:43:32;97710.63;;;-8.53;100.00
60170;BME280;46042;49.444;6.862;2022-12-15T07:46:00;97701.19;;;-8.43;100.00
60170;BME280;46042;49.444;6.862;2022-12-15T07:48:27;97708.81;;;-8.38;100.00
60170;BME280;46042;49.444;6.862;2022-12-15T07:50:55;97716.53;;;-8.46;100.00
60170;BME280;46042;49.444;6.862;2022-12-15T07:53:35;97713.09;;;-8.47;100.00
60170;BME280;46042;49.444;6.862;2022-12-15T07:56:04;97719.94;;;-8.49;100.00
60170;BME280;46042;49.444;6.862;2022-12-15T07:58:34;97737.75;;;-8.38;100.00
60170;BME280;46042;49.444;6.862;2022-12-15T08:01:02;97742.84;;;-8.33;100.00
60170;BME280;46042;49.444;6.862;2022-12-15T08:03:29;97742.84;;;-8.29;100.00
60170;BME280;46042;49.444;6.862;2022-12-15T08:05:57;97747.06;;;-8.20;100.00
60170;BME280;46042;49.444;6.862;2022-12-15T08:08:29;97748.75;;;-8.22;100.00
60170;BME280;46042;49.444;6.862;2022-12-15T08:10:57;97762.34;;;-8.18;100.00
60170;BME280;46042;49.444;6.862;2022-12-15T08:13:23;97760.59;;;-8.07;100.00
60170;BME280;46042;49.444;6.862;2022-12-15T08:16:10;97752.06;;;-8.03;100.00
60170;BME280;46042;49.444;6.862;2022-12-15T08:18:37;97757.97;;;-7.93;100.00
60170;BME280;46042;49.444;6.862;2022-12-15T08:21:06;97765.63;;;-7.88;100.00
60170;BME280;46042;49.444;6.862;2022-12-15T08:23:34;97760.56;;;-7.99;100.00
60170;BME280;46042;49.444;6.862;2022-12-15T08:26:03;97765.66;;;-7.94;100.00
60170;BME280;46042;49.444;6.862;2022-12-15T08:28:31;97765.59;;;-7.83;100.00
60170;BME280;46042;49.444;6.862;2022-12-15T08:31:25;97769.78;;;-7.70;100.00
60170;BME280;46042;49.444;6.862;2022-12-15T08:33:51;97772.31;;;-7.68;100.00
60170;BME280;46042;49.444;6.862;2022-12-15T08:36:18;97791.00;;;-7.63;100.00
60170;BME280;46042;49.444;6.862;2022-12-15T08:38:46;97795.22;;;-7.51;100.00
60170;BME280;46042;49.444;6.862;2022-12-15T08:41:18;97795.09;;;-7.39;100.00
60170;BME280;46042;49.444;6.862;2022-12-15T08:43:46;97789.00;;;-7.22;100.00
60170;BME280;46042;49.444;6.862;2022-12-15T08:46:16;97792.31;;;-7.08;100.00
60170;BME280;46042;49.444;6.862;2022-12-15T08:48:43;97796.50;;;-6.99;100.00
60170;BME280;46042;49.444;6.862;2022-12-15T08:51:10;97799.81;;;-6.89;100.00
60170;BME280;46042;49.444;6.862;2022-12-15T08:53:37;97796.31;;;-6.79;100.00
60170;BME280;46042;49.444;6.862;2022-12-15T08:56:06;97795.38;;;-6.70;100.00
60170;BME280;46042;49.444;6.862;2022-12-15T08:58:33;97785.88;;;-6.60;100.00
60170;BME280;46042;49.444;6.862;2022-12-15T09:01:04;97798.59;;;-6.54;100.00
60170;BME280;46042;49.444;6.862;2022-12-15T09:03:35;97798.53;;;-6.45;100.00
60170;BME280;46042;49.444;6.862;2022-12-15T09:06:04;97804.41;;;-6.35;100.00
60170;BME280;46042;49.444;6.862;2022-12-15T09:08:32;97815.47;;;-6.31;100.00
60170;BME280;46042;49.444;6.862;2022-12-15T09:10:59;97815.34;;;-6.20;100.00
60170;BME280;46042;49.444;6.862;2022-12-15T09:13:26;97818.72;;;-6.18;100.00
60170;BME280;46042;49.444;6.862;2022-12-15T09:16:02;97819.47;;;-6.10;100.00
60170;BME280;46042;49.444;6.862;2022-12-15T09:18:36;97816.03;;;-6.06;100.00
60170;BME280;46042;49.444;6.862;2022-12-15T09:21:05;97810.84;;;-6.03;100.00
60170;BME280;46042;49.444;6.862;2022-12-15T09:23:34;97804.00;;;-6.02;100.00
60170;BME280;46042;49.444;6.862;2022-12-15T09:26:10;97809.88;;;-5.95;100.00
60170;BME280;46042;49.444;6.862;2022-12-15T09:28:38;97817.50;;;-5.92;100.00
60170;BME280;46042;49.444;6.862;2022-12-15T09:31:07;97826.06;;;-5.92;100.00
60170;BME280;46042;49.444;6.862;2022-12-15T09:33:35;97824.28;;;-5.87;100.00
60170;BME280;46042;49.444;6.862;2022-12-15T09:36:02;97814.84;;;-5.81;100.00
60170;BME280;46042;49.444;6.862;2022-12-15T09:38:29;97812.28;;;-5.85;100.00
60170;BME280;46042;49.444;6.862;2022-12-15T09:40:56;97822.53;;;-5.81;100.00
60170;BME280;46042;49.444;6.862;2022-12-15T09:43:25;97818.22;;;-5.79;100.00
60170;BME280;46042;49.444;6.862;2022-12-15T09:46:06;97819.00;;;-5.74;100.00
60170;BME280;46042;49.444;6.862;2022-12-15T09:48:38;97815.56;;;-5.73;100.00
60170;BME280;46042;49.444;6.862;2022-12-15T09:51:07;97812.03;;;-5.66;100.00
60170;BME280;46042;49.444;6.862;2022-12-15T09:53:36;97802.63;;;-5.64;100.00
60170;BME280;46042;49.444;6.862;2022-12-15T09:56:27;97803.44;;;-5.63;100.00
60170;BME280;46042;49.444;6.862;2022-12-15T10:07:35;97813.38;;;-5.40;100.00
60170;BME280;46042;49.444;6.862;2022-12-15T10:16:02;97800.38;;;-5.29;100.00
60170;BME280;46042;49.444;6.862;2022-12-15T10:18:40;97802.91;;;-5.26;100.00
60170;BME280;46042;49.444;6.862;2022-12-15T10:21:15;97788.25;;;-5.19;100.00
60170;BME280;46042;49.444;6.862;2022-12-15T10:23:42;97787.38;;;-5.18;100.00
60170;BME280;46042;49.444;6.862;2022-12-15T10:26:19;97785.63;;;-5.16;100.00
60170;BME280;46042;49.444;6.862;2022-12-15T10:34:35;97787.81;;;-4.93;100.00
60170;BME280;46042;49.444;6.862;2022-12-15T10:37:04;97782.44;;;-4.79;100.00
60170;BME280;46042;49.444;6.862;2022-12-15T10:39:39;97788.25;;;-4.69;100.00
60170;BME280;46042;49.444;6.862;2022-12-15T10:42:24;97779.63;;;-4.65;100.00
60170;BME280;46042;49.444;6.862;2022-12-15T10:44:55;97783.06;;;-4.66;100.00
60170;BME280;46042;49.444;6.862;2022-12-15T10:47:25;97767.56;;;-4.63;100.00
60170;BME280;46042;49.444;6.862;2022-12-15T10:49:53;97770.97;;;-4.61;100.00
60170;BME280;46042;49.444;6.862;2022-12-15T10:52:24;97770.81;;;-4.53;100.00
60170;BME280;46042;49.444;6.862;2022-12-15T10:54:53;97772.38;;;-4.44;100.00
60170;BME280;46042;49.444;6.862;2022-12-15T10:57:23;97775.78;;;-4.44;100.00
60170;BME280;46042;49.444;6.862;2022-12-15T11:00:31;97779.78;;;-4.30;100.00
60170;BME280;46042;49.444;6.862;2022-12-15T11:02:58;97763.38;;;-4.23;100.00
60170;BME280;46042;49.444;6.862;2022-12-15T11:05:26;97754.69;;;-4.17;100.00
60170;BME280;46042;49.444;6.862;2022-12-15T11:08:15;97751.09;;;-4.08;100.00
60170;BME280;46042;49.444;6.862;2022-12-15T11:10:55;97740.66;;;-4.02;100.00
60170;BME280;46042;49.444;6.862;2022-12-15T11:14:05;97737.06;;;-3.95;100.00
60170;BME280;46042;49.444;6.862;2022-12-15T11:17:04;97728.41;;;-3.91;100.00
60170;BME280;46042;49.444;6.862;2022-12-15T11:19:39;97719.75;;;-3.87;100.00
60170;BME280;46042;49.444;6.862;2022-12-15T11:22:41;97707.50;;;-3.77;100.00
60170;BME280;46042;49.444;6.862;2022-12-15T11:25:32;97709.81;;;-3.66;100.00
60170;BME280;46042;49.444;6.862;2022-12-15T11:28:07;97713.03;;;-3.56;100.00
60170;BME280;46042;49.444;6.862;2022-12-15T11:30:50;97703.31;;;-3.45;100.00
60170;BME280;46042;49.444;6.862;2022-12-15T11:33:20;97692.47;;;-3.23;100.00
60170;BME280;46042;49.444;6.862;2022-12-15T11:36:12;97676.66;;;-3.09;100.00
60170;BME280;46042;49.444;6.862;2022-12-15T11:38:57;97672.94;;;-2.97;100.00
60170;BME280;46042;49.444;6.862;2022-12-15T11:41:51;97666.53;;;-2.83;100.00
60170;BME280;46042;49.444;6.862;2022-12-15T11:55:25;97659.50;;;-2.47;98.86
60170;BME280;46042;49.444;6.862;2022-12-15T12:00:42;97645.00;;;-2.51;97.07
60170;BME280;46042;49.444;6.862;2022-12-15T12:03:41;97644.03;;;-2.47;94.89
60170;BME280;46042;49.444;6.862;2022-12-15T12:06:23;97642.53;;;-2.54;94.58
60170;BME280;46042;49.444;6.862;2022-12-15T12:09:43;97631.22;;;-2.50;95.83
60170;BME280;46042;49.444;6.862;2022-12-15T12:22:43;97611.94;;;-2.66;96.03
60170;BME280;46042;49.444;6.862;2022-12-15T12:25:20;97622.22;;;-2.65;95.85
60170;BME280;46042;49.444;6.862;2022-12-15T12:30:24;97621.94;;;-2.55;97.19
60170;BME280;46042;49.444;6.862;2022-12-15T12:33:28;97618.38;;;-2.23;95.68
60170;BME280;46042;49.444;6.862;2022-12-15T12:36:11;97613.22;;;-1.94;92.86
60170;BME280;46042;49.444;6.862;2022-12-15T12:38:47;97609.81;;;-1.69;93.08
60170;BME280;46042;49.444;6.862;2022-12-15T12:41:36;97615.91;;;-1.45;91.40
60170;BME280;46042;49.444;6.862;2022-12-15T12:44:38;97616.03;;;-1.48;89.71
60170;BME280;46042;49.444;6.862;2022-12-15T12:47:27;97617.97;;;-1.30;90.51
60170;BME280;46042;49.444;6.862;2022-12-15T12:50:02;97616.91;;;-1.24;89.68
60170;BME280;46042;49.444;6.862;2022-12-15T12:52:33;97611.78;;;-1.25;86.79
60170;BME280;46042;49.444;6.862;2022-12-15T12:55:24;97589.56;;;-1.06;88.82
60170;BME280;46042;49.444;6.862;2022-12-15T12:57:52;97591.56;;;-0.89;88.81
60170;BME280;46042;49.444;6.862;2022-12-15T13:00:25;97584.13;;;-0.74;87.67
60170;BME280;46042;49.444;6.862;2022-12-15T13:03:12;97587.56;;;-0.74;85.96
60170;BME280;46042;49.444;6.862;2022-12-15T13:05:41;97584.22;;;-0.77;83.99
60170;BME280;46042;49.444;6.862;2022-12-15T13:10:36;97569.84;;;-0.84;88.88
60170;BME280;46042;49.444;6.862;2022-12-15T13:13:36;97568.91;;;-0.82;86.57
60170;BME280;46042;49.444;6.862;2022-12-15T13:19:01;97551.00;;;-0.88;87.26
60170;BME280;46042;49.444;6.862;2022-12-15T13:26:50;97552.25;;;-0.75;86.75
60170;BME280;46042;49.444;6.862;2022-12-15T13:29:20;97559.09;;;-0.74;87.27
60170;BME280;46042;49.444;6.862;2022-12-15T13:31:49;97558.09;;;-0.69;86.31
60170;BME280;46042;49.444;6.862;2022-12-15T13:34:18;97560.63;;;-0.68;87.88
60170;BME280;46042;49.444;6.862;2022-12-15T13:36:49;97544.94;;;-0.63;87.01
60170;BME280;46042;49.444;6.862;2022-12-15T13:44:39;97540.78;;;-0.67;87.64
60170;BME280;46042;49.444;6.862;2022-12-15T13:49:53;97532.00;;;-0.87;86.61
60170;BME280;46042;49.444;6.862;2022-12-15T13:52:52;97541.16;;;-1.01;85.68
60170;BME280;46042;49.444;6.862;2022-12-15T13:55:51;97542.34;;;-1.09;87.20
60170;BME280;46042;49.444;6.862;2022-12-15T13:58:19;97542.38;;;-1.11;87.88
60170;BME280;46042;49.444;6.862;2022-12-15T14:00:52;97532.19;;;-1.16;88.46
60170;BME280;46042;49.444;6.862;2022-12-15T14:03:20;97527.25;;;-1.22;88.17
60170;BME280;46042;49.444;6.862;2022-12-15T14:05:54;97527.53;;;-1.30;85.83
60170;BME280;46042;49.444;6.862;2022-12-15T14:08:23;97532.94;;;-1.36;85.73
60170;BME280;46042;49.444;6.862;2022-12-15T14:10:52;97543.97;;;-1.32;88.29
60170;BME280;46042;49.444;6.862;2022-12-15T14:13:21;97549.53;;;-1.43;86.35
60170;BME280;46042;49.444;6.862;2022-12-15T14:18:26;97558.72;;;-1.60;85.53
60170;BME280;46042;49.444;6.862;2022-12-15T14:20:53;97554.41;;;-1.59;86.48
60170;BME280;46042;49.444;6.862;2022-12-15T14:23:25;97558.94;;;-1.66;87.30
60170;BME280;46042;49.444;6.862;2022-12-15T14:26:02;97559.19;;;-1.74;88.98
60170;BME280;46042;49.444;6.862;2022-12-15T14:28:35;97556.84;;;-1.81;88.00
60170;BME280;46042;49.444;6.862;2022-12-15T14:31:16;97569.22;;;-1.91;87.20
60170;BME280;46042;49.444;6.862;2022-12-15T14:33:47;97562.56;;;-1.98;89.24
60170;BME280;46042;49.444;6.862;2022-12-15T14:36:18;97558.38;;;-2.01;90.19
60170;BME280;46042;49.444;6.862;2022-12-15T14:38:53;97564.56;;;-2.07;90.76
60170;BME280;46042;49.444;6.862;2022-12-15T14:41:23;97568.94;;;-2.09;91.70
60170;BME280;46042;49.444;6.862;2022-12-15T14:43:54;97566.09;;;-2.01;91.08
60170;BME280;46042;49.444;6.862;2022-12-15T14:46:46;97560.03;;;-2.00;90.43
60170;BME280;46042;49.444;6.862;2022-12-15T14:49:40;97559.03;;;-1.96;90.52
60170;BME280;46042;49.444;6.862;2022-12-15T14:54:57;97548.88;;;-2.01;90.07
60170;BME280;46042;49.444;6.862;2022-12-15T14:57:41;97561.28;;;-2.12;90.63
60170;BME280;46042;49.444;6.862;2022-12-15T15:00:48;97565.94;;;-2.23;91.13
60170;BME280;46042;49.444;6.862;2022-12-15T15:03:17;97570.59;;;-2.35;91.31
60170;BME280;46042;49.444;6.862;2022-12-15T15:05:52;97571.81;;;-2.47;90.20
60170;BME280;46042;49.444;6.862;2022-12-15T15:08:32;97566.06;;;-2.55;90.94
60170;BME280;46042;49.444;6.862;2022-12-15T15:11:16;97568.09;;;-2.66;91.70